ZPPP/KMG METAR and TAF weather

Enter ICAO airport designator
Station Type Date Time Source
ZPPP METAR 2021/08/05 05:00 UTC NOAA

ZPPP 050500Z 10002MPS 360V150 9999 SCT030 27/14 Q1016 BECMG TL0630 22005MPS


Station Type Date Time Source
ZPPP Decoded METAR 2021/08/05 05:00 UTC NOAA

Kunming, China (ZPPP) 25-01N 102-41E 1892M
Aug 05, 2021 - 01:00 AM EDT / 2021.08.05 0500 UTC
Wind: from the E (100 degrees) at 4 MPH (4 KT) (direction variable):0
Visibility: greater than 7 mile(s):0
Sky conditions: partly cloudy
Temperature: 80 F (27 C)
Dew Point: 57 F (14 C)
Relative Humidity: 44%
Pressure (altimeter): 30.00 in. Hg (1016 hPa)
ob: ZPPP 050500Z 10002MPS 360V150 9999 SCT030 27/14 Q1016 BECMG TL0630 22005MPS
cycle: 5

Station Type Date Time Source
ZPPP TAF 2021/08/05 06:06 UTC NOAA

TAF ZPPP 050302Z 0506/0606 22004MPS 9999 SCT026 TX27/0508Z TN16/0523Z

Example: see airport list